createdAt,value
2018-03-24T00:00:19.305Z,7.08
2018-03-24T00:01:19.225Z,7.01
2018-03-24T00:02:19.135Z,7.00
2018-03-24T00:03:19.066Z,7.05
2018-03-24T00:04:18.971Z,7.04
2018-03-24T00:05:18.917Z,7.14
2018-03-24T00:06:18.809Z,7.04
2018-03-24T00:07:18.725Z,7.08
2018-03-24T00:08:18.688Z,7.09
2018-03-24T00:09:18.564Z,7.04
2018-03-24T00:10:18.509Z,6.97
2018-03-24T00:11:18.411Z,7.01
2018-03-24T00:12:18.311Z,7.01
2018-03-24T00:13:18.235Z,6.97
2018-03-24T00:14:18.148Z,7.00
2018-03-24T00:15:18.082Z,6.97
2018-03-24T00:16:18.003Z,6.94
2018-03-24T00:17:17.910Z,6.99
2018-03-24T00:18:17.832Z,7.12
2018-03-24T00:19:17.762Z,7.09
2018-03-24T00:20:17.661Z,7.04
2018-03-24T00:21:17.607Z,7.04
2018-03-24T00:22:17.525Z,7.07
2018-03-24T00:23:17.425Z,7.11
2018-03-24T00:24:17.376Z,7.04
2018-03-24T00:25:17.387Z,6.99
2018-03-24T00:26:17.184Z,7.04
2018-03-24T00:27:17.099Z,6.93
2018-03-24T00:28:17.018Z,6.90
2018-03-24T00:29:16.943Z,6.96
2018-03-24T00:30:16.839Z,6.94
2018-03-24T00:31:16.789Z,6.91
2018-03-24T00:32:16.713Z,7.08
2018-03-24T00:33:16.648Z,6.93
2018-03-24T00:34:16.513Z,6.94
2018-03-24T00:35:16.522Z,6.94
2018-03-24T00:36:16.381Z,7.00
2018-03-24T00:37:16.292Z,7.04
2018-03-24T00:38:16.215Z,6.99
2018-03-24T00:39:16.134Z,6.97
2018-03-24T00:40:16.024Z,6.94
2018-03-24T00:41:15.954Z,6.90
2018-03-24T00:42:15.874Z,7.07
2018-03-24T00:43:15.787Z,6.94
2018-03-24T00:44:15.695Z,6.99
2018-03-24T00:45:15.629Z,7.09
2018-03-24T00:46:15.534Z,7.05
2018-03-24T00:47:15.485Z,7.00
2018-03-24T00:48:15.381Z,7.11
2018-03-24T00:49:15.325Z,6.97
2018-03-24T00:50:15.215Z,7.00
2018-03-24T00:51:15.126Z,7.00
2018-03-24T00:52:15.045Z,6.97
2018-03-24T00:53:14.978Z,6.96
2018-03-24T00:54:14.913Z,6.91
2018-03-24T00:55:14.813Z,6.99
2018-03-24T00:56:14.718Z,6.90
2018-03-24T00:57:14.642Z,6.82
2018-03-24T00:58:14.563Z,6.87
2018-03-24T00:59:14.517Z,6.81
2018-03-24T01:00:14.405Z,6.82
2018-03-24T01:01:14.341Z,6.89
2018-03-24T01:02:14.224Z,6.89
2018-03-24T01:03:14.212Z,6.93
2018-03-24T01:04:14.072Z,6.93
2018-03-24T01:05:14.049Z,6.93
2018-03-24T01:06:13.905Z,6.93
2018-03-24T01:07:13.970Z,6.87
2018-03-24T01:08:13.752Z,6.97
2018-03-24T01:09:13.775Z,6.97
2018-03-24T01:10:13.590Z,6.94
2018-03-24T01:11:13.541Z,6.94
2018-03-24T01:12:13.436Z,6.93
2018-03-24T01:13:13.455Z,6.79
2018-03-24T01:14:13.243Z,6.90
2018-03-24T01:15:14.221Z,6.81
2018-03-24T01:16:13.089Z,6.83
2018-03-24T01:17:13.080Z,6.83
2018-03-24T01:18:12.918Z,6.86
2018-03-24T01:19:12.881Z,6.90
2018-03-24T01:20:12.788Z,6.94
2018-03-24T01:21:12.797Z,7.00
2018-03-24T01:22:12.589Z,6.99
2018-03-24T01:23:12.603Z,6.99
2018-03-24T01:24:12.441Z,6.90
2018-03-24T01:25:12.446Z,6.96
2018-03-24T01:26:12.261Z,6.96
2018-03-24T01:27:12.209Z,6.97
2018-03-24T01:28:12.105Z,6.83
2018-03-24T01:29:12.129Z,6.94
2018-03-24T01:30:11.957Z,6.99
2018-03-24T01:31:11.973Z,7.05
2018-03-24T01:32:11.777Z,6.94
2018-03-24T01:33:11.742Z,6.96
2018-03-24T01:34:11.720Z,6.94
2018-03-24T01:35:11.557Z,6.89
2018-03-24T01:36:11.468Z,6.87
2018-03-24T01:37:11.479Z,6.94
2018-03-24T01:38:11.278Z,6.83
2018-03-24T01:39:11.281Z,6.81
2018-03-24T01:40:11.115Z,6.93
2018-03-24T01:41:11.116Z,6.81
2018-03-24T01:42:10.977Z,6.90
2018-03-24T01:43:11.004Z,6.86
2018-03-24T01:44:10.805Z,6.81
2018-03-24T01:45:10.804Z,6.86
2018-03-24T01:46:10.669Z,6.78
2018-03-24T01:47:10.604Z,6.64
2018-03-24T01:48:10.469Z,6.81
2018-03-24T01:49:10.415Z,6.82
2018-03-24T01:50:10.303Z,6.82
2018-03-24T01:51:10.351Z,6.79
2018-03-24T01:52:10.157Z,6.65
2018-03-24T01:53:10.137Z,6.81
2018-03-24T01:54:10.062Z,6.68
2018-03-24T01:55:09.939Z,6.60
2018-03-24T01:56:09.822Z,6.60
2018-03-24T01:57:10.428Z,6.60
2018-03-24T01:58:09.642Z,6.68
2018-03-24T01:59:09.663Z,6.68
2018-03-24T02:00:09.475Z,6.65
2018-03-24T02:01:09.466Z,6.64
2018-03-24T02:02:09.341Z,6.55
2018-03-24T02:03:09.305Z,6.53
2018-03-24T02:04:09.155Z,6.58
2018-03-24T02:05:09.190Z,6.69
2018-03-24T02:06:08.990Z,6.58
2018-03-24T02:07:09.126Z,6.51
2018-03-24T02:08:08.823Z,6.50
2018-03-24T02:09:08.801Z,6.54
2018-03-24T02:10:08.665Z,6.53
2018-03-24T02:11:08.610Z,6.42
2018-03-24T02:12:08.495Z,6.48
2018-03-24T02:13:08.568Z,6.42
2018-03-24T02:14:08.336Z,6.36
2018-03-24T02:15:08.336Z,6.28
2018-03-24T02:16:08.172Z,6.33
2018-03-24T02:17:08.154Z,6.32
2018-03-24T02:18:08.022Z,6.43
2018-03-24T02:19:08.045Z,6.33
2018-03-24T02:20:07.844Z,6.27
2018-03-24T02:21:07.869Z,6.33
2018-03-24T02:22:07.677Z,6.25
2018-03-24T02:23:07.704Z,6.21
2018-03-24T02:24:07.543Z,6.21
2018-03-24T02:25:07.488Z,6.19
2018-03-24T02:26:07.357Z,6.25
2018-03-24T02:27:07.402Z,6.20
2018-03-24T02:28:07.261Z,6.16
2018-03-24T02:29:07.214Z,5.99
2018-03-24T02:30:07.036Z,6.03
2018-03-24T02:31:07.025Z,6.01
2018-03-24T02:32:06.862Z,5.87
2018-03-24T02:33:06.844Z,5.80
2018-03-24T02:34:06.710Z,5.85
2018-03-24T02:35:06.828Z,5.77
2018-03-24T02:36:06.542Z,5.81
2018-03-24T02:37:06.943Z,5.77
2018-03-24T02:38:06.399Z,5.81
2018-03-24T02:39:07.199Z,5.70
2018-03-24T02:40:06.207Z,5.66
2018-03-24T02:41:06.277Z,5.84
2018-03-24T02:42:06.036Z,5.80
2018-03-24T02:43:06.052Z,5.69
2018-03-24T02:44:05.914Z,5.66
2018-03-24T02:45:05.866Z,5.67
2018-03-24T02:46:05.709Z,5.70
2018-03-24T02:47:05.781Z,5.62
2018-03-24T02:48:05.541Z,5.66
2018-03-24T02:49:05.516Z,5.60
2018-03-24T02:50:05.383Z,5.66
2018-03-24T02:51:05.388Z,5.55
2018-03-24T02:52:05.214Z,5.47
2018-03-24T02:53:05.256Z,5.47
2018-03-24T02:54:05.072Z,5.41
2018-03-24T02:55:05.010Z,5.48
2018-03-24T02:56:04.916Z,5.47
2018-03-24T02:57:04.920Z,5.58
2018-03-24T02:58:04.719Z,5.56
2018-03-24T02:59:04.730Z,5.51
2018-03-24T03:00:04.695Z,5.49
2018-03-24T03:01:04.547Z,5.48
2018-03-24T03:02:04.407Z,5.38
2018-03-24T03:03:04.420Z,5.41
2018-03-24T03:04:04.230Z,5.38
2018-03-24T03:05:04.294Z,5.27
2018-03-24T03:06:04.070Z,5.33
2018-03-24T03:07:04.097Z,5.32
2018-03-24T03:08:03.893Z,5.20
2018-03-24T03:09:03.877Z,5.30
2018-03-24T03:10:03.754Z,5.23
2018-03-24T03:11:03.798Z,5.24
2018-03-24T03:12:03.697Z,5.17
2018-03-24T03:13:03.481Z,5.23
2018-03-24T03:14:03.503Z,5.22
2018-03-24T03:15:03.333Z,5.17
2018-03-24T03:16:03.339Z,5.14
2018-03-24T03:17:03.209Z,5.20
2018-03-24T03:18:03.108Z,5.19
2018-03-24T03:19:02.985Z,5.23
2018-03-24T03:20:03.026Z,5.15
2018-03-24T03:21:02.837Z,5.12
2018-03-24T03:22:02.841Z,4.99
2018-03-24T03:23:02.675Z,5.02
2018-03-24T03:24:02.642Z,5.02
2018-03-24T03:25:02.495Z,5.01
2018-03-24T03:26:02.463Z,5.02
2018-03-24T03:27:02.334Z,4.99
2018-03-24T03:28:02.408Z,4.97
2018-03-24T03:29:02.163Z,5.02
2018-03-24T03:30:02.177Z,4.94
2018-03-24T03:31:01.990Z,5.02
2018-03-24T03:32:02.008Z,4.99
2018-03-24T03:33:01.889Z,5.02
2018-03-24T03:34:01.790Z,4.96
2018-03-24T03:35:01.666Z,4.96
2018-03-24T03:36:01.776Z,4.84
2018-03-24T03:37:01.521Z,5.01
2018-03-24T03:38:01.532Z,4.83
2018-03-24T03:39:01.329Z,4.80
2018-03-24T03:40:01.316Z,4.75
2018-03-24T03:41:01.160Z,4.86
2018-03-24T03:42:01.156Z,4.80
2018-03-24T03:43:01.024Z,4.88
2018-03-24T03:44:01.029Z,4.80
2018-03-24T03:45:00.840Z,4.84
2018-03-24T03:46:00.835Z,4.97
2018-03-24T03:47:00.691Z,4.86
2018-03-24T03:48:00.683Z,4.87
2018-03-24T03:49:00.517Z,4.84
2018-03-24T03:50:00.461Z,4.90
2018-03-24T03:51:00.340Z,4.87
2018-03-24T03:52:00.375Z,4.90
2018-03-24T03:53:00.222Z,4.86
2018-03-24T03:54:00.176Z,4.75
2018-03-24T03:55:00.019Z,4.65
2018-03-24T03:56:00.019Z,4.69
2018-03-24T03:56:59.860Z,4.75
2018-03-24T03:57:59.826Z,4.80
2018-03-24T03:58:59.678Z,4.68
2018-03-24T03:59:59.702Z,4.74
2018-03-24T04:00:59.513Z,4.68
2018-03-24T04:01:59.513Z,4.57
2018-03-24T04:02:59.345Z,4.67
2018-03-24T04:03:59.347Z,4.83
2018-03-24T04:04:59.183Z,4.74
2018-03-24T04:05:59.124Z,4.69
2018-03-24T04:06:59.020Z,4.77
2018-03-24T04:07:59.080Z,4.80
2018-03-24T04:08:58.866Z,4.68
2018-03-24T04:09:58.842Z,4.59
2018-03-24T04:10:58.681Z,4.67
2018-03-24T04:11:58.662Z,4.67
2018-03-24T04:12:58.632Z,4.68
2018-03-24T04:13:58.495Z,4.77
2018-03-24T04:14:58.389Z,4.88
2018-03-24T04:15:58.410Z,4.74
2018-03-24T04:16:58.205Z,4.75
2018-03-24T04:17:58.189Z,4.64
2018-03-24T04:18:58.074Z,4.54
2018-03-24T04:19:57.993Z,4.53
2018-03-24T04:20:57.893Z,4.64
2018-03-24T04:21:57.901Z,4.54
2018-03-24T04:22:57.696Z,4.64
2018-03-24T04:23:57.753Z,4.51
2018-03-24T04:24:57.524Z,4.61
2018-03-24T04:25:58.684Z,4.53
2018-03-24T04:26:57.366Z,4.49
2018-03-24T04:27:57.342Z,4.56
2018-03-24T04:28:57.203Z,4.56
2018-03-24T04:29:57.238Z,4.51
2018-03-24T04:30:57.110Z,4.57
2018-03-24T04:33:38.950Z,4.64
2018-03-24T04:36:20.875Z,4.59
2018-03-24T04:37:20.833Z,4.54
2018-03-24T04:38:20.720Z,4.53
2018-03-24T04:39:20.675Z,4.51
2018-03-24T04:40:20.566Z,4.49
2018-03-24T04:41:20.568Z,4.35
2018-03-24T04:42:20.398Z,4.32
2018-03-24T04:43:20.877Z,4.36
2018-03-24T04:44:20.240Z,4.44
2018-03-24T04:45:20.169Z,4.39
2018-03-24T04:46:20.056Z,4.42
2018-03-24T04:47:20.079Z,4.38
2018-03-24T04:48:19.887Z,4.36
2018-03-24T04:49:19.917Z,4.38
2018-03-24T04:50:19.721Z,4.38
2018-03-24T04:51:19.706Z,4.44
2018-03-24T04:52:19.548Z,4.46
2018-03-24T04:53:19.546Z,4.35
2018-03-24T04:54:19.392Z,4.42
2018-03-24T04:55:19.346Z,4.28
2018-03-24T04:56:19.217Z,4.31
2018-03-24T04:57:19.240Z,4.29
2018-03-24T04:58:19.062Z,4.25
2018-03-24T04:59:19.042Z,4.24
2018-03-24T05:00:18.919Z,4.13
2018-03-24T05:01:18.850Z,4.18
2018-03-24T05:04:42.416Z,4.17
2018-03-24T05:05:42.316Z,4.17
2018-03-24T05:06:42.341Z,4.21
2018-03-24T05:07:42.131Z,4.11
2018-03-24T05:08:42.140Z,4.10
2018-03-24T05:09:42.059Z,4.16
2018-03-24T05:10:41.970Z,4.14
2018-03-24T05:11:41.797Z,4.13
2018-03-24T05:12:41.760Z,4.13
2018-03-24T05:13:41.627Z,4.14
2018-03-24T05:14:41.671Z,4.02
2018-03-24T05:15:41.482Z,4.00
2018-03-24T05:16:41.474Z,4.08
2018-03-24T05:17:41.299Z,4.07
2018-03-24T05:18:41.282Z,4.06
2018-03-24T05:19:41.135Z,4.04
2018-03-24T05:20:41.129Z,3.95
2018-03-24T05:21:40.987Z,3.96
2018-03-24T05:22:40.996Z,3.90
2018-03-24T05:23:40.805Z,4.02
2018-03-24T05:24:40.812Z,3.96
2018-03-24T05:25:40.677Z,3.93
2018-03-24T05:26:40.648Z,3.93
2018-03-24T05:27:40.477Z,3.98
2018-03-24T05:28:40.431Z,4.02
2018-03-24T05:29:40.306Z,3.98
2018-03-24T05:30:40.370Z,4.07
2018-03-24T05:31:40.151Z,3.98
2018-03-24T05:32:40.139Z,4.02
2018-03-24T05:33:39.972Z,3.86
2018-03-24T05:34:39.954Z,3.93
2018-03-24T05:35:39.801Z,3.90
2018-03-24T05:36:39.799Z,3.84
2018-03-24T05:37:39.639Z,3.86
2018-03-24T05:38:39.666Z,3.70
2018-03-24T05:39:39.492Z,3.89
2018-03-24T05:40:39.492Z,3.80
2018-03-24T05:41:39.331Z,3.82
2018-03-24T05:42:39.445Z,3.82
2018-03-24T05:43:39.157Z,3.89
2018-03-24T05:44:39.103Z,3.77
2018-03-24T05:45:38.971Z,3.80
2018-03-24T05:46:39.040Z,3.80
2018-03-24T05:47:38.812Z,3.78
2018-03-24T05:48:38.954Z,3.84
2018-03-24T05:49:38.636Z,3.80
2018-03-24T05:50:38.625Z,3.80
2018-03-24T05:51:38.497Z,3.84
2018-03-24T05:52:38.430Z,3.90
2018-03-24T05:53:38.322Z,4.02
2018-03-24T05:54:38.338Z,4.00
2018-03-24T05:55:38.143Z,4.00
2018-03-24T05:56:38.185Z,4.11
2018-03-24T05:57:37.978Z,4.16
2018-03-24T05:58:38.008Z,4.25
2018-03-24T05:59:37.890Z,4.31
2018-03-24T06:00:37.768Z,4.35
2018-03-24T06:01:37.648Z,4.44
2018-03-24T06:02:37.773Z,4.50
2018-03-24T06:03:37.476Z,4.49
2018-03-24T06:04:37.535Z,4.44
2018-03-24T06:05:37.319Z,4.53
2018-03-24T06:06:37.300Z,4.49
2018-03-24T06:07:37.155Z,4.34
2018-03-24T06:08:37.145Z,4.29
2018-03-24T06:09:37.012Z,4.16
2018-03-24T06:12:18.887Z,4.00
2018-03-24T06:13:18.955Z,4.16
2018-03-24T06:14:18.724Z,4.14
2018-03-24T06:15:18.716Z,4.16
2018-03-24T06:16:18.556Z,4.32
2018-03-24T06:17:18.550Z,4.43
2018-03-24T06:18:18.404Z,4.38
2018-03-24T06:19:18.368Z,4.39
2018-03-24T06:20:18.241Z,4.36
2018-03-24T06:21:18.254Z,4.46
2018-03-24T06:22:18.062Z,4.44
2018-03-24T06:23:18.156Z,4.44
2018-03-24T06:24:17.922Z,4.54
2018-03-24T06:25:17.875Z,4.64
2018-03-24T06:26:17.845Z,4.56
2018-03-24T06:27:17.790Z,4.53
2018-03-24T06:28:17.576Z,4.62
2018-03-24T06:29:17.614Z,4.72
2018-03-24T06:30:17.415Z,4.68
2018-03-24T06:31:17.399Z,4.71
2018-03-24T06:32:17.237Z,4.72
2018-03-24T06:33:17.195Z,4.74
2018-03-24T06:34:17.072Z,4.88
2018-03-24T06:35:17.048Z,4.88
2018-03-24T06:36:17.019Z,4.93
2018-03-24T06:37:16.926Z,5.01
2018-03-24T06:38:16.742Z,5.14
2018-03-24T06:39:16.810Z,5.24
2018-03-24T06:40:16.595Z,5.37
2018-03-24T06:41:16.534Z,5.55
2018-03-24T06:42:16.406Z,5.83
2018-03-24T06:43:16.445Z,6.02
2018-03-24T06:44:16.253Z,6.38
2018-03-24T06:45:16.300Z,6.39
2018-03-24T06:46:16.099Z,6.55
2018-03-24T06:47:16.065Z,6.53
2018-03-24T06:48:15.917Z,6.65
2018-03-24T06:49:15.874Z,6.81
2018-03-24T06:50:15.749Z,7.04
2018-03-24T06:51:15.812Z,7.14
2018-03-24T06:52:15.586Z,7.32
2018-03-24T06:53:15.586Z,7.39
2018-03-24T06:54:15.420Z,7.36
2018-03-24T06:55:15.428Z,7.29
2018-03-24T06:56:15.274Z,7.34
2018-03-24T06:57:15.311Z,7.27
2018-03-24T06:58:15.121Z,7.39
2018-03-24T06:59:15.993Z,7.48
2018-03-24T07:00:14.934Z,7.18
2018-03-24T07:01:14.927Z,7.21
2018-03-24T07:02:14.769Z,7.18
2018-03-24T07:03:14.742Z,7.32
2018-03-24T07:04:14.643Z,6.93
2018-03-24T07:05:14.659Z,6.96
2018-03-24T07:06:14.438Z,6.82
2018-03-24T07:07:14.481Z,6.68
2018-03-24T07:08:14.280Z,6.54
2018-03-24T07:09:14.258Z,6.73
2018-03-24T07:10:14.130Z,6.78
2018-03-24T07:11:14.066Z,6.82
2018-03-24T07:12:13.976Z,7.11
2018-03-24T07:13:13.981Z,7.09
2018-03-24T07:14:13.798Z,7.24
2018-03-24T07:15:13.785Z,7.34
2018-03-24T07:16:13.629Z,7.62
2018-03-24T07:17:13.596Z,7.88
2018-03-24T07:18:13.478Z,7.99
2018-03-24T07:19:13.502Z,8.52
2018-03-24T07:20:13.308Z,8.70
2018-03-24T07:21:13.371Z,9.13
2018-03-24T07:22:13.139Z,9.37
2018-03-24T07:23:13.171Z,9.55
2018-03-24T07:24:12.986Z,10.34
2018-03-24T07:25:12.939Z,9.89
2018-03-24T07:26:12.848Z,9.78
2018-03-24T07:27:12.853Z,9.98
2018-03-24T07:28:12.674Z,9.89
2018-03-24T07:29:12.800Z,9.77
2018-03-24T07:30:12.492Z,10.87
2018-03-24T07:31:12.477Z,10.98
2018-03-24T07:32:12.412Z,11.26
2018-03-24T07:33:12.293Z,11.30
2018-03-24T07:34:12.166Z,11.74
2018-03-24T07:35:12.216Z,11.45
2018-03-24T07:36:12.011Z,10.43
2018-03-24T07:37:11.983Z,10.55
2018-03-24T07:38:11.845Z,11.16
2018-03-24T07:39:11.841Z,9.59
2018-03-24T07:40:11.695Z,9.95
2018-03-24T07:41:11.706Z,10.78
2018-03-24T07:42:11.536Z,11.64
2018-03-24T07:43:11.511Z,12.15
2018-03-24T07:44:11.380Z,13.16
2018-03-24T07:45:11.426Z,13.91
2018-03-24T07:46:11.296Z,14.49
2018-03-24T07:47:11.231Z,14.69
2018-03-24T07:48:11.088Z,14.71
2018-03-24T07:49:11.189Z,14.31
2018-03-24T07:50:10.912Z,14.54
2018-03-24T07:51:10.858Z,14.12
2018-03-24T07:52:10.875Z,13.93
2018-03-24T07:53:10.768Z,14.46
2018-03-24T07:54:10.614Z,14.67
2018-03-24T07:55:10.588Z,14.83
2018-03-24T07:56:10.426Z,13.48
2018-03-24T07:57:10.564Z,12.85
2018-03-24T07:58:10.275Z,13.39
2018-03-24T07:59:10.328Z,13.59
2018-03-24T08:00:10.119Z,13.16
2018-03-24T08:01:10.104Z,13.61
2018-03-24T08:02:09.963Z,13.96
2018-03-24T08:03:10.012Z,14.26
2018-03-24T08:04:10.242Z,14.21
2018-03-24T08:05:09.861Z,14.78
2018-03-24T08:06:09.660Z,15.20
2018-03-24T08:07:09.634Z,15.56
2018-03-24T08:08:09.562Z,15.35
2018-03-24T08:09:09.534Z,14.71
2018-03-24T08:10:09.338Z,14.16
2018-03-24T08:11:09.416Z,13.13
2018-03-24T08:12:09.186Z,12.73
2018-03-24T08:13:09.160Z,12.62
2018-03-24T08:14:09.049Z,11.69
2018-03-24T08:15:09.068Z,12.16
2018-03-24T08:16:08.887Z,12.55
2018-03-24T08:17:08.915Z,13.47
2018-03-24T08:18:08.739Z,14.38
2018-03-24T08:19:08.679Z,14.74
2018-03-24T08:20:08.574Z,15.34
2018-03-24T08:21:08.696Z,14.56
2018-03-24T08:22:08.419Z,14.85
2018-03-24T08:23:08.411Z,15.03
2018-03-24T08:24:08.245Z,15.80
2018-03-24T08:25:08.324Z,15.56
2018-03-24T08:26:08.114Z,15.70
2018-03-24T08:28:50.052Z,15.27
2018-03-24T08:29:49.973Z,15.20
2018-03-24T08:30:49.791Z,15.58
2018-03-24T08:31:49.903Z,15.80
2018-03-24T08:32:49.611Z,16.10
2018-03-24T08:33:49.674Z,15.99
2018-03-24T08:34:49.456Z,16.45
2018-03-24T08:35:49.476Z,16.44
2018-03-24T08:36:49.341Z,16.32
2018-03-24T08:37:49.378Z,15.95
2018-03-24T08:38:49.146Z,16.88
2018-03-24T08:39:49.173Z,16.85
2018-03-24T08:40:49.018Z,16.47
2018-03-24T08:41:50.060Z,15.05
2018-03-24T08:42:48.883Z,14.52
2018-03-24T08:45:03.098Z,15.41
2018-03-24T08:48:27.984Z,16.73
2018-03-24T08:49:27.932Z,16.98
2018-03-24T08:52:51.475Z,17.74
2018-03-24T08:53:51.417Z,17.65
2018-03-24T08:54:51.584Z,17.65
2018-03-24T08:55:51.964Z,18.16
2018-03-24T08:56:51.807Z,17.92
2018-03-24T08:57:51.151Z,18.23
2018-03-24T08:58:50.974Z,17.80
2018-03-24T09:01:15.452Z,17.73
2018-03-24T09:02:15.414Z,17.47
2018-03-24T09:03:15.300Z,17.66
2018-03-24T09:04:15.340Z,18.05
2018-03-24T09:05:15.130Z,18.17
2018-03-24T09:06:15.131Z,18.17
2018-03-24T09:07:14.975Z,17.91
2018-03-24T09:08:14.984Z,17.73
2018-03-24T09:09:14.826Z,17.43
2018-03-24T09:10:14.851Z,17.36
2018-03-24T09:11:14.734Z,17.46
2018-03-24T09:12:14.672Z,17.81
2018-03-24T09:13:14.531Z,18.04
2018-03-24T09:14:14.618Z,18.32
2018-03-24T09:15:14.388Z,16.96
2018-03-24T09:16:14.374Z,15.92
2018-03-24T09:17:14.240Z,16.32
2018-03-24T09:18:14.188Z,16.85
2018-03-24T09:19:14.199Z,16.88
2018-03-24T09:20:14.103Z,15.84
2018-03-24T09:21:13.952Z,16.34
2018-03-24T09:22:13.929Z,17.14
2018-03-24T09:23:13.789Z,17.17
2018-03-24T09:24:13.850Z,17.42
2018-03-24T09:25:13.631Z,17.42
2018-03-24T09:26:13.627Z,18.19
2018-03-24T09:27:13.489Z,18.35
2018-03-24T09:28:13.640Z,17.91
2018-03-24T09:29:13.361Z,18.16
2018-03-24T09:30:13.346Z,17.30
2018-03-24T09:31:13.196Z,17.39
2018-03-24T09:32:13.171Z,17.57
2018-03-24T09:33:13.040Z,18.13
2018-03-24T09:34:13.094Z,18.10
2018-03-24T09:35:12.898Z,17.46
2018-03-24T09:36:12.877Z,16.57
2018-03-24T09:37:12.737Z,15.62
2018-03-24T09:38:12.782Z,14.71
2018-03-24T09:39:12.622Z,14.39
2018-03-24T09:40:12.644Z,13.76
2018-03-24T09:41:12.449Z,13.94
2018-03-24T09:42:12.508Z,14.02
2018-03-24T09:43:12.303Z,14.91
2018-03-24T09:44:12.310Z,14.66
2018-03-24T09:45:12.158Z,14.93
2018-03-24T09:46:12.125Z,15.43
2018-03-24T09:47:11.994Z,14.09
2018-03-24T09:48:12.036Z,13.48
2018-03-24T09:49:11.851Z,13.09
2018-03-24T09:50:11.881Z,13.16
2018-03-24T09:52:11.751Z,14.95
2018-03-24T09:53:11.558Z,16.11
2018-03-24T09:54:11.563Z,16.08
2018-03-24T09:55:11.412Z,15.80
2018-03-24T09:56:11.372Z,15.22
2018-03-24T09:57:11.237Z,16.03
2018-03-24T09:58:11.294Z,16.03
2018-03-24T09:59:11.087Z,13.88
2018-03-24T10:00:11.088Z,14.06
2018-03-24T10:01:10.957Z,15.03
2018-03-24T10:02:10.902Z,15.74
2018-03-24T10:03:10.799Z,16.30
2018-03-24T10:04:10.822Z,15.73
2018-03-24T10:05:10.620Z,15.38
2018-03-24T10:06:10.641Z,15.73
2018-03-24T10:07:10.604Z,16.45
2018-03-24T10:08:10.530Z,16.84
2018-03-24T10:09:10.325Z,15.31
2018-03-24T10:10:10.343Z,14.78
2018-03-24T10:11:10.190Z,15.31
2018-03-24T10:12:10.148Z,15.91
2018-03-24T10:13:10.014Z,15.38
2018-03-24T10:14:10.064Z,16.07
2018-03-24T10:15:09.859Z,16.17
2018-03-24T10:16:09.887Z,15.67
2018-03-24T10:17:09.711Z,15.68
2018-03-24T10:18:09.683Z,16.08
2018-03-24T10:19:09.556Z,14.93
2018-03-24T10:20:09.591Z,14.98
2018-03-24T10:21:09.441Z,15.11
2018-03-24T10:22:09.423Z,15.59
2018-03-24T10:23:09.267Z,15.77
2018-03-24T10:24:09.307Z,16.47
2018-03-24T10:25:09.109Z,16.22
2018-03-24T10:26:09.113Z,16.06
2018-03-24T10:27:08.988Z,15.48
2018-03-24T10:28:08.968Z,14.54
2018-03-24T10:29:08.800Z,15.09
2018-03-24T10:30:08.824Z,13.87
2018-03-24T10:31:08.643Z,14.23
2018-03-24T10:32:08.665Z,14.52
2018-03-24T10:33:08.543Z,15.35
2018-03-24T10:34:08.542Z,15.35
2018-03-24T10:35:08.346Z,14.57
2018-03-24T10:36:08.359Z,14.93
2018-03-24T10:37:08.211Z,15.80
2018-03-24T10:38:08.202Z,16.47
2018-03-24T10:39:08.049Z,16.11
2018-03-24T10:40:08.072Z,15.86
2018-03-24T10:41:07.898Z,16.13
2018-03-24T10:42:07.822Z,16.57
2018-03-24T10:43:07.789Z,15.78
2018-03-24T10:44:07.682Z,15.46
2018-03-24T10:45:07.606Z,14.98
2018-03-24T10:46:07.606Z,15.25
2018-03-24T10:47:07.458Z,14.69
2018-03-24T10:48:07.441Z,13.87
2018-03-24T10:49:07.301Z,14.04
2018-03-24T10:50:07.348Z,14.11
2018-03-24T10:51:07.135Z,13.73
2018-03-24T10:52:07.145Z,14.36
2018-03-24T10:53:06.980Z,13.73
2018-03-24T10:54:06.905Z,14.31
2018-03-24T10:55:06.856Z,14.74
2018-03-24T10:56:06.855Z,14.48
2018-03-24T10:57:06.680Z,14.44
2018-03-24T10:58:06.653Z,14.49
2018-03-24T10:59:06.539Z,14.93
2018-03-24T11:00:06.568Z,15.11
2018-03-24T11:01:06.376Z,15.04
2018-03-24T11:02:06.376Z,15.58
2018-03-24T11:03:06.208Z,15.15
2018-03-24T11:04:06.226Z,14.12
2018-03-24T11:05:06.083Z,14.08
2018-03-24T11:06:06.094Z,13.73
2018-03-24T11:07:05.911Z,13.98
2018-03-24T11:08:05.898Z,14.21
2018-03-24T11:09:05.838Z,14.66
2018-03-24T11:10:05.693Z,14.61
2018-03-24T11:11:05.611Z,14.44
2018-03-24T11:12:05.664Z,14.69
2018-03-24T11:13:05.447Z,15.18
2018-03-24T11:14:05.439Z,14.74
2018-03-24T11:15:05.303Z,14.79
2018-03-24T11:16:05.340Z,15.33
2018-03-24T11:17:05.141Z,15.34
2018-03-24T11:18:05.156Z,15.13
2018-03-24T11:19:04.985Z,14.36
2018-03-24T11:20:04.992Z,14.31
2018-03-24T11:21:04.832Z,14.91
2018-03-24T11:22:04.782Z,14.86
2018-03-24T11:23:04.673Z,14.83
2018-03-24T11:24:04.672Z,14.82
2018-03-24T11:25:04.597Z,15.37
2018-03-24T11:26:04.460Z,15.27
2018-03-24T11:27:04.363Z,14.86
2018-03-24T11:28:04.405Z,14.44
2018-03-24T11:29:04.220Z,15.00
2018-03-24T11:30:04.245Z,15.28
2018-03-24T11:31:04.098Z,15.15
2018-03-24T11:32:04.319Z,15.66
2018-03-24T11:33:03.944Z,16.13
2018-03-24T11:34:04.537Z,15.92
2018-03-24T11:35:03.796Z,15.38
2018-03-24T11:36:03.768Z,15.52
2018-03-24T11:37:03.617Z,15.53
2018-03-24T11:38:03.641Z,15.52
2018-03-24T11:39:03.463Z,15.76
2018-03-24T11:40:03.464Z,15.59
2018-03-24T11:41:03.325Z,15.22
2018-03-24T11:42:03.287Z,13.93
2018-03-24T11:43:03.159Z,14.91
2018-03-24T11:44:03.165Z,15.62
2018-03-24T11:45:03.043Z,16.30
2018-03-24T11:46:03.007Z,16.88
2018-03-24T11:47:02.846Z,16.85
2018-03-24T11:48:02.811Z,17.62
2018-03-24T11:49:02.705Z,17.71
2018-03-24T11:50:02.652Z,17.54
2018-03-24T11:51:02.631Z,16.08
2018-03-24T11:52:02.565Z,15.33
2018-03-24T11:53:02.396Z,14.95
2018-03-24T11:54:02.466Z,15.00
2018-03-24T11:55:02.321Z,16.47
2018-03-24T11:56:02.253Z,15.64
2018-03-24T11:57:02.119Z,15.38
2018-03-24T11:58:02.058Z,15.15
2018-03-24T11:59:01.958Z,15.73
2018-03-24T12:00:01.876Z,16.30
2018-03-24T12:01:01.788Z,17.32
2018-03-24T12:02:01.734Z,18.01
2018-03-24T12:03:01.639Z,16.88
2018-03-24T12:04:01.677Z,16.42
2018-03-24T12:05:01.498Z,16.44
2018-03-24T12:06:01.465Z,16.10
2018-03-24T12:07:01.420Z,16.59
2018-03-24T12:08:01.284Z,16.34
2018-03-24T12:09:01.193Z,16.60
2018-03-24T12:10:01.261Z,16.69
2018-03-24T12:11:01.043Z,16.75
2018-03-24T12:12:01.023Z,17.32
2018-03-24T12:13:00.913Z,17.71
2018-03-24T12:14:00.905Z,17.66
2018-03-24T12:15:00.749Z,16.92
2018-03-24T12:16:00.723Z,16.57
2018-03-24T12:17:00.586Z,16.81
2018-03-24T12:18:00.565Z,17.12
2018-03-24T12:19:00.435Z,17.68
2018-03-24T12:20:00.436Z,16.84
2018-03-24T12:21:00.276Z,16.55
2018-03-24T12:22:00.243Z,15.60
2018-03-24T12:23:00.152Z,15.48
2018-03-24T12:24:00.160Z,15.27
2018-03-24T12:24:59.984Z,14.94
2018-03-24T12:25:59.987Z,14.74
2018-03-24T12:26:59.829Z,14.75
2018-03-24T12:27:59.958Z,14.67
2018-03-24T12:28:59.702Z,14.56
2018-03-24T12:29:59.709Z,13.91
2018-03-24T12:30:59.510Z,14.09
2018-03-24T12:31:59.489Z,13.41
2018-03-24T12:32:59.549Z,12.63
2018-03-24T12:33:59.407Z,12.62
2018-03-24T12:34:59.204Z,12.46
2018-03-24T12:36:00.080Z,12.56
2018-03-24T12:36:59.057Z,12.88
2018-03-24T12:37:59.024Z,13.09
2018-03-24T12:38:58.914Z,13.35
2018-03-24T12:39:58.931Z,13.46
2018-03-24T12:40:58.736Z,13.21
2018-03-24T12:41:58.742Z,13.10
2018-03-24T12:42:58.587Z,12.92
2018-03-24T12:43:58.571Z,13.13
2018-03-24T12:44:58.444Z,13.28
2018-03-24T12:45:58.459Z,13.24
2018-03-24T12:46:58.284Z,13.25
2018-03-24T12:47:58.270Z,12.96
2018-03-24T12:48:58.188Z,12.69
2018-03-24T12:49:58.075Z,12.69
2018-03-24T12:50:57.972Z,12.70
2018-03-24T12:51:57.978Z,12.85
2018-03-24T12:52:57.811Z,12.94
2018-03-24T12:53:57.837Z,13.19
2018-03-24T12:54:57.648Z,13.21
2018-03-24T12:55:57.663Z,13.29
2018-03-24T12:56:57.504Z,13.41
2018-03-24T12:57:57.531Z,13.10
2018-03-24T12:58:57.359Z,13.13
2018-03-24T12:59:57.321Z,13.41
2018-03-24T13:00:57.202Z,13.25
2018-03-24T13:01:57.123Z,13.14
2018-03-24T13:02:57.026Z,13.25
2018-03-24T13:03:57.088Z,13.10
2018-03-24T13:04:56.861Z,13.46
2018-03-24T13:05:56.855Z,13.59
2018-03-24T13:06:56.723Z,13.46
2018-03-24T13:07:56.660Z,13.68
2018-03-24T13:08:56.588Z,13.88
2018-03-24T13:09:56.603Z,13.96
2018-03-24T13:10:56.391Z,13.93
2018-03-24T13:11:56.396Z,14.11
2018-03-24T13:12:56.225Z,14.26
2018-03-24T13:13:56.220Z,14.01
2018-03-24T13:14:56.096Z,13.98
2018-03-24T13:15:56.100Z,14.20
2018-03-24T13:16:55.910Z,13.88
2018-03-24T13:17:55.913Z,14.12
2018-03-24T13:18:55.755Z,14.04
2018-03-24T13:19:55.696Z,14.06
2018-03-24T13:20:55.599Z,13.68
2018-03-24T13:21:55.535Z,13.53
2018-03-24T13:22:55.451Z,13.43
2018-03-24T13:23:55.382Z,13.48